sensor_id;sensor_type;location;lat;lon;timestamp;P1;durP1;ratioP1;P2;durP2;ratioP2
479;SDS011;226;48.606;9.096;2024-01-30T00:01:50;6.87;;;5.27;;
479;SDS011;226;48.606;9.096;2024-01-30T00:04:19;13.30;;;7.50;;
479;SDS011;226;48.606;9.096;2024-01-30T00:06:49;11.30;;;7.73;;
479;SDS011;226;48.606;9.096;2024-01-30T00:09:19;11.30;;;6.20;;
479;SDS011;226;48.606;9.096;2024-01-30T00:11:47;9.37;;;6.40;;
479;SDS011;226;48.606;9.096;2024-01-30T00:14:15;12.20;;;6.10;;
479;SDS011;226;48.606;9.096;2024-01-30T00:16:43;16.97;;;6.63;;
479;SDS011;226;48.606;9.096;2024-01-30T00:19:12;11.63;;;7.33;;
479;SDS011;226;48.606;9.096;2024-01-30T00:21:40;10.40;;;6.83;;
479;SDS011;226;48.606;9.096;2024-01-30T00:24:10;7.57;;;6.77;;
479;SDS011;226;48.606;9.096;2024-01-30T00:26:38;14.43;;;6.77;;
479;SDS011;226;48.606;9.096;2024-01-30T00:29:06;12.83;;;7.10;;
479;SDS011;226;48.606;9.096;2024-01-30T00:31:34;11.23;;;6.90;;
479;SDS011;226;48.606;9.096;2024-01-30T00:34:07;19.20;;;8.13;;
479;SDS011;226;48.606;9.096;2024-01-30T00:36:35;15.07;;;8.47;;
479;SDS011;226;48.606;9.096;2024-01-30T00:39:04;14.73;;;7.90;;
479;SDS011;226;48.606;9.096;2024-01-30T00:41:36;12.03;;;6.17;;
479;SDS011;226;48.606;9.096;2024-01-30T00:44:04;11.67;;;7.47;;
479;SDS011;226;48.606;9.096;2024-01-30T00:46:32;20.70;;;8.57;;
479;SDS011;226;48.606;9.096;2024-01-30T00:49:00;10.67;;;7.70;;
479;SDS011;226;48.606;9.096;2024-01-30T00:51:29;16.03;;;7.47;;
479;SDS011;226;48.606;9.096;2024-01-30T00:53:57;9.57;;;6.80;;
479;SDS011;226;48.606;9.096;2024-01-30T00:56:25;15.53;;;7.53;;
479;SDS011;226;48.606;9.096;2024-01-30T00:58:55;13.40;;;7.60;;
479;SDS011;226;48.606;9.096;2024-01-30T01:01:23;13.80;;;8.67;;
479;SDS011;226;48.606;9.096;2024-01-30T01:03:51;19.03;;;7.40;;
479;SDS011;226;48.606;9.096;2024-01-30T01:06:19;10.70;;;7.73;;
479;SDS011;226;48.606;9.096;2024-01-30T01:08:47;15.10;;;7.10;;
479;SDS011;226;48.606;9.096;2024-01-30T01:11:17;13.67;;;8.53;;
479;SDS011;226;48.606;9.096;2024-01-30T01:13:45;21.13;;;7.60;;
479;SDS011;226;48.606;9.096;2024-01-30T01:16:14;13.07;;;6.57;;
479;SDS011;226;48.606;9.096;2024-01-30T01:18:42;9.27;;;7.10;;
479;SDS011;226;48.606;9.096;2024-01-30T01:21:10;14.00;;;8.10;;
479;SDS011;226;48.606;9.096;2024-01-30T01:23:38;9.13;;;7.90;;
479;SDS011;226;48.606;9.096;2024-01-30T01:26:07;13.73;;;7.37;;
479;SDS011;226;48.606;9.096;2024-01-30T01:28:36;12.90;;;7.90;;
479;SDS011;226;48.606;9.096;2024-01-30T01:31:04;13.03;;;7.20;;
479;SDS011;226;48.606;9.096;2024-01-30T01:33:34;13.53;;;7.60;;
479;SDS011;226;48.606;9.096;2024-01-30T01:36:03;14.60;;;7.73;;
479;SDS011;226;48.606;9.096;2024-01-30T01:38:33;17.90;;;8.10;;
479;SDS011;226;48.606;9.096;2024-01-30T01:41:01;13.80;;;8.07;;
479;SDS011;226;48.606;9.096;2024-01-30T01:43:29;12.63;;;7.07;;
479;SDS011;226;48.606;9.096;2024-01-30T01:45:57;11.53;;;8.30;;
479;SDS011;226;48.606;9.096;2024-01-30T01:48:25;12.57;;;8.00;;
479;SDS011;226;48.606;9.096;2024-01-30T01:50:55;13.80;;;8.00;;
479;SDS011;226;48.606;9.096;2024-01-30T01:53:24;10.27;;;7.23;;
479;SDS011;226;48.606;9.096;2024-01-30T01:55:54;10.50;;;7.03;;
479;SDS011;226;48.606;9.096;2024-01-30T01:58:22;9.73;;;7.40;;
479;SDS011;226;48.606;9.096;2024-01-30T02:00:56;13.17;;;8.27;;
479;SDS011;226;48.606;9.096;2024-01-30T02:03:24;8.80;;;6.70;;
479;SDS011;226;48.606;9.096;2024-01-30T02:05:53;12.33;;;8.27;;
479;SDS011;226;48.606;9.096;2024-01-30T02:08:23;11.57;;;7.67;;
479;SDS011;226;48.606;9.096;2024-01-30T02:10:52;12.80;;;8.80;;
479;SDS011;226;48.606;9.096;2024-01-30T02:13:20;12.93;;;8.60;;
479;SDS011;226;48.606;9.096;2024-01-30T02:15:49;14.90;;;7.70;;
479;SDS011;226;48.606;9.096;2024-01-30T02:18:19;17.80;;;7.73;;
479;SDS011;226;48.606;9.096;2024-01-30T02:20:47;14.50;;;8.93;;
479;SDS011;226;48.606;9.096;2024-01-30T02:23:17;11.43;;;7.97;;
479;SDS011;226;48.606;9.096;2024-01-30T02:25:47;15.60;;;8.33;;
479;SDS011;226;48.606;9.096;2024-01-30T02:28:15;13.97;;;7.77;;
479;SDS011;226;48.606;9.096;2024-01-30T02:30:43;8.70;;;7.80;;
479;SDS011;226;48.606;9.096;2024-01-30T02:33:12;13.67;;;7.73;;
479;SDS011;226;48.606;9.096;2024-01-30T02:35:41;14.53;;;8.50;;
479;SDS011;226;48.606;9.096;2024-01-30T02:38:09;8.83;;;7.40;;
479;SDS011;226;48.606;9.096;2024-01-30T02:40:38;9.90;;;7.50;;
479;SDS011;226;48.606;9.096;2024-01-30T02:43:06;11.47;;;7.80;;
479;SDS011;226;48.606;9.096;2024-01-30T02:45:35;12.10;;;8.37;;
479;SDS011;226;48.606;9.096;2024-01-30T02:48:03;7.90;;;7.20;;
479;SDS011;226;48.606;9.096;2024-01-30T02:50:31;12.03;;;8.17;;
479;SDS011;226;48.606;9.096;2024-01-30T02:52:59;20.30;;;7.37;;
479;SDS011;226;48.606;9.096;2024-01-30T02:55:28;9.70;;;7.10;;
479;SDS011;226;48.606;9.096;2024-01-30T02:57:57;12.90;;;7.10;;
479;SDS011;226;48.606;9.096;2024-01-30T03:00:25;12.30;;;7.93;;
479;SDS011;226;48.606;9.096;2024-01-30T03:02:53;11.00;;;6.90;;
479;SDS011;226;48.606;9.096;2024-01-30T03:05:21;11.67;;;6.03;;
479;SDS011;226;48.606;9.096;2024-01-30T03:07:50;13.17;;;7.43;;
479;SDS011;226;48.606;9.096;2024-01-30T03:10:18;10.23;;;7.20;;
479;SDS011;226;48.606;9.096;2024-01-30T03:12:46;10.37;;;6.63;;
479;SDS011;226;48.606;9.096;2024-01-30T03:15:16;12.33;;;8.57;;
479;SDS011;226;48.606;9.096;2024-01-30T03:17:44;13.63;;;7.77;;
479;SDS011;226;48.606;9.096;2024-01-30T03:20:12;11.80;;;6.50;;
479;SDS011;226;48.606;9.096;2024-01-30T03:22:40;9.90;;;7.00;;
479;SDS011;226;48.606;9.096;2024-01-30T03:25:08;12.13;;;8.03;;
479;SDS011;226;48.606;9.096;2024-01-30T03:27:37;9.93;;;6.47;;
479;SDS011;226;48.606;9.096;2024-01-30T03:30:05;15.43;;;8.27;;
479;SDS011;226;48.606;9.096;2024-01-30T03:32:36;12.27;;;7.10;;
479;SDS011;226;48.606;9.096;2024-01-30T03:35:04;10.00;;;7.20;;
479;SDS011;226;48.606;9.096;2024-01-30T03:37:33;13.93;;;8.13;;
479;SDS011;226;48.606;9.096;2024-01-30T03:40:01;13.53;;;7.97;;
479;SDS011;226;48.606;9.096;2024-01-30T03:42:30;11.50;;;6.93;;
479;SDS011;226;48.606;9.096;2024-01-30T03:44:58;13.30;;;7.53;;
479;SDS011;226;48.606;9.096;2024-01-30T03:47:26;13.83;;;8.17;;
479;SDS011;226;48.606;9.096;2024-01-30T03:49:56;16.63;;;8.67;;
479;SDS011;226;48.606;9.096;2024-01-30T03:52:24;12.97;;;8.53;;
479;SDS011;226;48.606;9.096;2024-01-30T03:54:52;13.43;;;7.57;;
479;SDS011;226;48.606;9.096;2024-01-30T03:57:20;11.90;;;8.80;;
479;SDS011;226;48.606;9.096;2024-01-30T03:59:48;16.00;;;8.13;;
479;SDS011;226;48.606;9.096;2024-01-30T04:02:16;13.03;;;8.83;;
479;SDS011;226;48.606;9.096;2024-01-30T04:04:45;9.13;;;7.93;;
479;SDS011;226;48.606;9.096;2024-01-30T04:07:15;12.27;;;8.37;;
479;SDS011;226;48.606;9.096;2024-01-30T04:09:45;9.23;;;7.33;;
479;SDS011;226;48.606;9.096;2024-01-30T04:12:13;16.03;;;9.53;;
479;SDS011;226;48.606;9.096;2024-01-30T04:14:41;12.13;;;7.57;;
479;SDS011;226;48.606;9.096;2024-01-30T04:17:10;14.17;;;7.10;;
479;SDS011;226;48.606;9.096;2024-01-30T04:19:38;6.87;;;6.17;;
479;SDS011;226;48.606;9.096;2024-01-30T04:22:06;15.53;;;8.03;;
479;SDS011;226;48.606;9.096;2024-01-30T04:24:36;18.97;;;8.33;;
479;SDS011;226;48.606;9.096;2024-01-30T04:27:04;17.53;;;7.60;;
479;SDS011;226;48.606;9.096;2024-01-30T04:29:32;10.40;;;8.13;;
479;SDS011;226;48.606;9.096;2024-01-30T04:32:00;12.53;;;7.00;;
479;SDS011;226;48.606;9.096;2024-01-30T04:34:28;12.67;;;6.83;;
479;SDS011;226;48.606;9.096;2024-01-30T04:36:56;16.80;;;8.60;;
479;SDS011;226;48.606;9.096;2024-01-30T04:39:25;11.53;;;6.77;;
479;SDS011;226;48.606;9.096;2024-01-30T04:41:54;9.10;;;7.00;;
479;SDS011;226;48.606;9.096;2024-01-30T04:44:22;11.13;;;6.53;;
479;SDS011;226;48.606;9.096;2024-01-30T04:46:50;12.63;;;6.50;;
479;SDS011;226;48.606;9.096;2024-01-30T04:49:18;7.03;;;6.20;;
479;SDS011;226;48.606;9.096;2024-01-30T04:51:47;9.37;;;7.83;;
479;SDS011;226;48.606;9.096;2024-01-30T04:54:15;11.83;;;7.40;;
479;SDS011;226;48.606;9.096;2024-01-30T04:56:43;14.60;;;8.00;;
479;SDS011;226;48.606;9.096;2024-01-30T04:59:12;14.60;;;8.70;;
479;SDS011;226;48.606;9.096;2024-01-30T05:01:41;16.73;;;8.47;;
479;SDS011;226;48.606;9.096;2024-01-30T05:04:09;13.97;;;7.40;;
479;SDS011;226;48.606;9.096;2024-01-30T05:06:42;11.30;;;7.23;;
479;SDS011;226;48.606;9.096;2024-01-30T05:09:11;11.33;;;7.57;;
479;SDS011;226;48.606;9.096;2024-01-30T05:11:39;12.83;;;7.90;;
479;SDS011;226;48.606;9.096;2024-01-30T05:14:07;14.20;;;9.07;;
479;SDS011;226;48.606;9.096;2024-01-30T05:16:37;13.18;;;6.63;;
479;SDS011;226;48.606;9.096;2024-01-30T05:19:05;18.13;;;7.93;;
479;SDS011;226;48.606;9.096;2024-01-30T05:21:34;7.80;;;6.83;;
479;SDS011;226;48.606;9.096;2024-01-30T05:24:02;11.37;;;7.20;;
479;SDS011;226;48.606;9.096;2024-01-30T05:26:31;11.57;;;6.80;;
479;SDS011;226;48.606;9.096;2024-01-30T05:28:59;9.70;;;6.83;;
479;SDS011;226;48.606;9.096;2024-01-30T05:31:28;11.27;;;7.97;;
479;SDS011;226;48.606;9.096;2024-01-30T05:33:58;16.47;;;8.13;;
479;SDS011;226;48.606;9.096;2024-01-30T05:36:26;12.00;;;7.87;;
479;SDS011;226;48.606;9.096;2024-01-30T05:38:55;11.23;;;7.50;;
479;SDS011;226;48.606;9.096;2024-01-30T05:41:23;11.30;;;7.47;;
479;SDS011;226;48.606;9.096;2024-01-30T05:43:52;8.50;;;7.30;;
479;SDS011;226;48.606;9.096;2024-01-30T05:46:20;10.70;;;8.07;;
479;SDS011;226;48.606;9.096;2024-01-30T05:48:51;12.93;;;7.00;;
479;SDS011;226;48.606;9.096;2024-01-30T05:51:21;12.10;;;8.80;;
479;SDS011;226;48.606;9.096;2024-01-30T05:53:49;12.10;;;8.60;;
479;SDS011;226;48.606;9.096;2024-01-30T05:56:17;13.70;;;8.53;;
479;SDS011;226;48.606;9.096;2024-01-30T05:58:46;11.10;;;7.53;;
479;SDS011;226;48.606;9.096;2024-01-30T06:01:16;11.57;;;7.50;;
479;SDS011;226;48.606;9.096;2024-01-30T06:03:45;14.30;;;7.60;;
479;SDS011;226;48.606;9.096;2024-01-30T06:06:13;16.47;;;8.27;;
479;SDS011;226;48.606;9.096;2024-01-30T06:08:43;9.63;;;6.77;;
479;SDS011;226;48.606;9.096;2024-01-30T06:11:11;12.50;;;7.60;;
479;SDS011;226;48.606;9.096;2024-01-30T06:13:40;12.63;;;7.30;;
479;SDS011;226;48.606;9.096;2024-01-30T06:16:09;12.77;;;7.43;;
479;SDS011;226;48.606;9.096;2024-01-30T06:18:38;14.20;;;7.70;;
479;SDS011;226;48.606;9.096;2024-01-30T06:21:07;9.70;;;7.27;;
479;SDS011;226;48.606;9.096;2024-01-30T06:23:38;18.17;;;7.87;;
479;SDS011;226;48.606;9.096;2024-01-30T06:26:08;11.87;;;7.50;;
479;SDS011;226;48.606;9.096;2024-01-30T06:28:37;17.03;;;7.87;;
479;SDS011;226;48.606;9.096;2024-01-30T06:31:05;16.60;;;8.80;;
479;SDS011;226;48.606;9.096;2024-01-30T06:33:33;10.10;;;7.63;;
479;SDS011;226;48.606;9.096;2024-01-30T06:36:02;11.30;;;7.83;;
479;SDS011;226;48.606;9.096;2024-01-30T06:38:30;13.00;;;9.13;;
479;SDS011;226;48.606;9.096;2024-01-30T06:40:59;11.90;;;7.23;;
479;SDS011;226;48.606;9.096;2024-01-30T06:43:28;14.27;;;8.10;;
479;SDS011;226;48.606;9.096;2024-01-30T06:45:57;10.67;;;7.83;;
479;SDS011;226;48.606;9.096;2024-01-30T06:48:25;9.77;;;8.20;;
479;SDS011;226;48.606;9.096;2024-01-30T06:50:54;14.90;;;9.07;;
479;SDS011;226;48.606;9.096;2024-01-30T06:53:24;9.53;;;7.13;;
479;SDS011;226;48.606;9.096;2024-01-30T06:55:53;16.13;;;8.53;;
479;SDS011;226;48.606;9.096;2024-01-30T06:58:21;14.83;;;9.27;;
479;SDS011;226;48.606;9.096;2024-01-30T07:00:51;10.80;;;7.77;;
479;SDS011;226;48.606;9.096;2024-01-30T07:03:19;11.67;;;7.17;;
479;SDS011;226;48.606;9.096;2024-01-30T07:05:48;13.10;;;9.40;;
479;SDS011;226;48.606;9.096;2024-01-30T07:08:16;14.30;;;8.43;;
479;SDS011;226;48.606;9.096;2024-01-30T07:10:44;18.40;;;8.77;;
479;SDS011;226;48.606;9.096;2024-01-30T07:13:13;17.13;;;9.03;;
479;SDS011;226;48.606;9.096;2024-01-30T07:15:43;24.10;;;11.50;;
479;SDS011;226;48.606;9.096;2024-01-30T07:18:12;14.30;;;9.57;;
479;SDS011;226;48.606;9.096;2024-01-30T07:20:41;27.00;;;11.50;;
479;SDS011;226;48.606;9.096;2024-01-30T07:23:12;12.57;;;8.37;;
479;SDS011;226;48.606;9.096;2024-01-30T07:25:43;17.40;;;10.27;;
479;SDS011;226;48.606;9.096;2024-01-30T07:28:14;17.60;;;11.60;;
479;SDS011;226;48.606;9.096;2024-01-30T07:30:43;29.53;;;20.37;;
479;SDS011;226;48.606;9.096;2024-01-30T07:33:13;32.47;;;17.30;;
479;SDS011;226;48.606;9.096;2024-01-30T07:35:42;23.00;;;14.60;;
479;SDS011;226;48.606;9.096;2024-01-30T07:38:10;33.63;;;15.90;;
479;SDS011;226;48.606;9.096;2024-01-30T07:40:38;21.40;;;13.27;;
479;SDS011;226;48.606;9.096;2024-01-30T07:43:07;20.40;;;12.53;;
479;SDS011;226;48.606;9.096;2024-01-30T07:45:35;17.47;;;10.77;;
479;SDS011;226;48.606;9.096;2024-01-30T07:48:05;19.90;;;11.37;;
479;SDS011;226;48.606;9.096;2024-01-30T07:50:35;19.43;;;12.17;;
479;SDS011;226;48.606;9.096;2024-01-30T07:53:03;18.30;;;11.20;;
479;SDS011;226;48.606;9.096;2024-01-30T07:55:31;18.33;;;11.57;;
479;SDS011;226;48.606;9.096;2024-01-30T07:58:00;23.87;;;11.50;;
479;SDS011;226;48.606;9.096;2024-01-30T08:00:30;19.43;;;11.60;;
479;SDS011;226;48.606;9.096;2024-01-30T08:02:58;22.47;;;13.30;;
479;SDS011;226;48.606;9.096;2024-01-30T08:05:26;26.67;;;13.00;;
479;SDS011;226;48.606;9.096;2024-01-30T08:07:56;18.53;;;11.27;;
479;SDS011;226;48.606;9.096;2024-01-30T08:10:24;24.27;;;14.10;;
479;SDS011;226;48.606;9.096;2024-01-30T08:12:52;22.10;;;13.33;;
479;SDS011;226;48.606;9.096;2024-01-30T08:15:21;33.33;;;15.30;;
479;SDS011;226;48.606;9.096;2024-01-30T08:17:49;42.53;;;20.87;;
479;SDS011;226;48.606;9.096;2024-01-30T08:20:22;38.37;;;21.07;;
479;SDS011;226;48.606;9.096;2024-01-30T08:22:50;47.03;;;24.47;;
479;SDS011;226;48.606;9.096;2024-01-30T08:25:19;42.63;;;27.13;;
479;SDS011;226;48.606;9.096;2024-01-30T08:27:48;61.57;;;25.30;;
479;SDS011;226;48.606;9.096;2024-01-30T08:30:16;39.03;;;23.00;;
479;SDS011;226;48.606;9.096;2024-01-30T08:32:44;39.87;;;21.60;;
479;SDS011;226;48.606;9.096;2024-01-30T08:35:13;35.37;;;20.20;;
479;SDS011;226;48.606;9.096;2024-01-30T08:37:42;34.50;;;20.13;;
479;SDS011;226;48.606;9.096;2024-01-30T08:40:11;39.90;;;20.40;;
479;SDS011;226;48.606;9.096;2024-01-30T08:42:40;31.63;;;18.73;;
479;SDS011;226;48.606;9.096;2024-01-30T08:45:09;30.77;;;20.20;;
479;SDS011;226;48.606;9.096;2024-01-30T08:47:37;38.50;;;21.23;;
479;SDS011;226;48.606;9.096;2024-01-30T08:50:06;28.57;;;17.60;;
479;SDS011;226;48.606;9.096;2024-01-30T08:52:35;33.43;;;19.30;;
479;SDS011;226;48.606;9.096;2024-01-30T08:55:03;47.03;;;21.70;;
479;SDS011;226;48.606;9.096;2024-01-30T08:57:32;41.07;;;24.37;;
479;SDS011;226;48.606;9.096;2024-01-30T09:00:01;45.43;;;23.20;;
479;SDS011;226;48.606;9.096;2024-01-30T09:02:33;44.83;;;22.90;;
479;SDS011;226;48.606;9.096;2024-01-30T09:05:02;54.63;;;22.40;;
479;SDS011;226;48.606;9.096;2024-01-30T09:07:30;37.17;;;20.57;;
479;SDS011;226;48.606;9.096;2024-01-30T09:09:58;36.47;;;19.50;;
479;SDS011;226;48.606;9.096;2024-01-30T09:12:27;55.57;;;16.73;;
479;SDS011;226;48.606;9.096;2024-01-30T09:14:55;24.10;;;12.23;;
479;SDS011;226;48.606;9.096;2024-01-30T09:17:24;29.10;;;14.50;;
479;SDS011;226;48.606;9.096;2024-01-30T09:19:52;30.53;;;15.37;;
479;SDS011;226;48.606;9.096;2024-01-30T09:22:21;22.97;;;9.60;;
479;SDS011;226;48.606;9.096;2024-01-30T09:24:49;38.33;;;10.33;;
479;SDS011;226;48.606;9.096;2024-01-30T09:27:17;21.60;;;12.50;;
479;SDS011;226;48.606;9.096;2024-01-30T09:29:46;25.17;;;13.67;;
479;SDS011;226;48.606;9.096;2024-01-30T09:32:16;32.00;;;13.80;;
479;SDS011;226;48.606;9.096;2024-01-30T09:34:46;30.57;;;11.30;;
479;SDS011;226;48.606;9.096;2024-01-30T09:37:15;18.40;;;11.50;;
479;SDS011;226;48.606;9.096;2024-01-30T09:39:44;30.50;;;12.43;;
479;SDS011;226;48.606;9.096;2024-01-30T09:42:18;21.90;;;9.93;;
479;SDS011;226;48.606;9.096;2024-01-30T09:44:56;19.73;;;10.93;;
479;SDS011;226;48.606;9.096;2024-01-30T09:47:25;19.27;;;12.30;;
479;SDS011;226;48.606;9.096;2024-01-30T09:49:59;14.20;;;8.43;;
479;SDS011;226;48.606;9.096;2024-01-30T09:52:32;12.27;;;7.47;;
479;SDS011;226;48.606;9.096;2024-01-30T09:55:02;8.57;;;5.47;;
479;SDS011;226;48.606;9.096;2024-01-30T09:57:31;5.30;;;4.27;;
479;SDS011;226;48.606;9.096;2024-01-30T10:00:00;3.83;;;3.47;;
479;SDS011;226;48.606;9.096;2024-01-30T10:02:28;6.97;;;4.50;;
479;SDS011;226;48.606;9.096;2024-01-30T10:04:58;3.37;;;2.97;;
479;SDS011;226;48.606;9.096;2024-01-30T10:07:27;4.47;;;3.60;;
479;SDS011;226;48.606;9.096;2024-01-30T10:09:56;4.83;;;4.33;;
479;SDS011;226;48.606;9.096;2024-01-30T10:12:25;4.20;;;3.37;;
479;SDS011;226;48.606;9.096;2024-01-30T10:14:56;5.13;;;3.30;;
479;SDS011;226;48.606;9.096;2024-01-30T10:17:25;6.27;;;5.17;;
479;SDS011;226;48.606;9.096;2024-01-30T10:20:03;4.33;;;2.70;;
479;SDS011;226;48.606;9.096;2024-01-30T10:22:33;10.90;;;3.70;;
479;SDS011;226;48.606;9.096;2024-01-30T10:25:01;4.23;;;2.70;;
479;SDS011;226;48.606;9.096;2024-01-30T10:27:32;3.93;;;2.87;;
479;SDS011;226;48.606;9.096;2024-01-30T10:30:00;3.40;;;2.80;;
479;SDS011;226;48.606;9.096;2024-01-30T10:32:30;3.00;;;2.70;;
479;SDS011;226;48.606;9.096;2024-01-30T10:35:00;5.03;;;3.03;;
479;SDS011;226;48.606;9.096;2024-01-30T10:37:29;4.17;;;3.37;;
479;SDS011;226;48.606;9.096;2024-01-30T10:40:01;3.87;;;3.17;;
479;SDS011;226;48.606;9.096;2024-01-30T10:42:33;4.00;;;3.60;;
479;SDS011;226;48.606;9.096;2024-01-30T10:45:06;5.00;;;3.37;;
479;SDS011;226;48.606;9.096;2024-01-30T10:47:40;4.27;;;3.80;;
479;SDS011;226;48.606;9.096;2024-01-30T10:50:13;3.13;;;2.50;;
479;SDS011;226;48.606;9.096;2024-01-30T10:52:45;8.20;;;4.47;;
479;SDS011;226;48.606;9.096;2024-01-30T10:55:16;5.60;;;3.70;;
479;SDS011;226;48.606;9.096;2024-01-30T10:57:47;4.30;;;3.10;;
479;SDS011;226;48.606;9.096;2024-01-30T11:00:17;5.83;;;3.33;;
479;SDS011;226;48.606;9.096;2024-01-30T11:02:50;7.70;;;4.30;;
479;SDS011;226;48.606;9.096;2024-01-30T11:05:24;6.87;;;4.10;;
479;SDS011;226;48.606;9.096;2024-01-30T11:07:59;2.93;;;2.73;;
479;SDS011;226;48.606;9.096;2024-01-30T11:10:28;4.10;;;3.20;;
479;SDS011;226;48.606;9.096;2024-01-30T11:12:58;7.23;;;3.30;;
479;SDS011;226;48.606;9.096;2024-01-30T11:15:27;3.50;;;3.20;;
479;SDS011;226;48.606;9.096;2024-01-30T11:17:58;5.07;;;3.50;;
479;SDS011;226;48.606;9.096;2024-01-30T11:20:29;5.57;;;3.70;;
479;SDS011;226;48.606;9.096;2024-01-30T11:22:59;9.03;;;3.90;;
479;SDS011;226;48.606;9.096;2024-01-30T11:25:32;4.27;;;3.07;;
479;SDS011;226;48.606;9.096;2024-01-30T11:28:02;3.90;;;3.13;;
479;SDS011;226;48.606;9.096;2024-01-30T11:30:33;4.83;;;3.07;;
479;SDS011;226;48.606;9.096;2024-01-30T11:33:03;4.20;;;3.20;;
479;SDS011;226;48.606;9.096;2024-01-30T11:35:35;5.57;;;3.17;;
479;SDS011;226;48.606;9.096;2024-01-30T11:38:06;5.57;;;2.67;;
479;SDS011;226;48.606;9.096;2024-01-30T11:40:36;4.83;;;3.00;;
479;SDS011;226;48.606;9.096;2024-01-30T11:43:06;6.40;;;2.70;;
479;SDS011;226;48.606;9.096;2024-01-30T11:45:36;3.57;;;3.17;;
479;SDS011;226;48.606;9.096;2024-01-30T11:48:09;3.73;;;3.43;;
479;SDS011;226;48.606;9.096;2024-01-30T11:50:41;4.43;;;3.50;;
479;SDS011;226;48.606;9.096;2024-01-30T11:53:11;5.10;;;3.23;;
479;SDS011;226;48.606;9.096;2024-01-30T11:55:39;5.87;;;3.87;;
479;SDS011;226;48.606;9.096;2024-01-30T11:58:12;5.03;;;3.90;;
479;SDS011;226;48.606;9.096;2024-01-30T12:00:41;8.73;;;2.93;;
479;SDS011;226;48.606;9.096;2024-01-30T12:03:11;4.23;;;2.80;;
479;SDS011;226;48.606;9.096;2024-01-30T12:05:39;4.00;;;2.80;;
479;SDS011;226;48.606;9.096;2024-01-30T12:08:15;3.90;;;2.77;;
479;SDS011;226;48.606;9.096;2024-01-30T12:10:44;2.90;;;2.53;;
479;SDS011;226;48.606;9.096;2024-01-30T12:13:12;3.90;;;2.80;;
479;SDS011;226;48.606;9.096;2024-01-30T12:15:48;11.93;;;3.17;;
479;SDS011;226;48.606;9.096;2024-01-30T12:18:20;3.57;;;2.50;;
479;SDS011;226;48.606;9.096;2024-01-30T12:20:58;3.80;;;2.70;;
479;SDS011;226;48.606;9.096;2024-01-30T12:23:29;3.90;;;3.07;;
479;SDS011;226;48.606;9.096;2024-01-30T12:25:57;4.20;;;2.70;;
479;SDS011;226;48.606;9.096;2024-01-30T12:28:26;3.50;;;2.70;;
479;SDS011;226;48.606;9.096;2024-01-30T12:31:00;5.13;;;3.17;;
479;SDS011;226;48.606;9.096;2024-01-30T12:33:30;4.97;;;3.10;;
479;SDS011;226;48.606;9.096;2024-01-30T12:36:00;6.93;;;2.70;;
479;SDS011;226;48.606;9.096;2024-01-30T12:38:31;3.23;;;2.93;;
479;SDS011;226;48.606;9.096;2024-01-30T12:40:59;4.93;;;3.60;;
479;SDS011;226;48.606;9.096;2024-01-30T12:43:28;2.07;;;1.90;;
479;SDS011;226;48.606;9.096;2024-01-30T12:46:04;3.10;;;2.60;;
479;SDS011;226;48.606;9.096;2024-01-30T12:48:33;3.80;;;3.47;;
479;SDS011;226;48.606;9.096;2024-01-30T12:51:02;2.70;;;2.57;;
479;SDS011;226;48.606;9.096;2024-01-30T12:53:32;4.70;;;2.67;;
479;SDS011;226;48.606;9.096;2024-01-30T12:56:00;3.43;;;3.13;;
479;SDS011;226;48.606;9.096;2024-01-30T12:58:30;3.17;;;2.90;;
479;SDS011;226;48.606;9.096;2024-01-30T13:00:58;2.60;;;2.33;;
479;SDS011;226;48.606;9.096;2024-01-30T13:03:26;2.17;;;2.07;;
479;SDS011;226;48.606;9.096;2024-01-30T13:05:55;2.90;;;2.60;;
479;SDS011;226;48.606;9.096;2024-01-30T13:08:23;2.80;;;2.50;;
479;SDS011;226;48.606;9.096;2024-01-30T13:10:53;3.60;;;2.90;;
479;SDS011;226;48.606;9.096;2024-01-30T13:13:21;3.40;;;2.87;;
479;SDS011;226;48.606;9.096;2024-01-30T13:15:49;3.10;;;2.57;;
479;SDS011;226;48.606;9.096;2024-01-30T13:18:17;3.73;;;3.13;;
479;SDS011;226;48.606;9.096;2024-01-30T13:20:46;5.10;;;3.23;;
479;SDS011;226;48.606;9.096;2024-01-30T13:23:14;5.80;;;3.27;;
479;SDS011;226;48.606;9.096;2024-01-30T13:25:42;4.43;;;3.33;;
479;SDS011;226;48.606;9.096;2024-01-30T13:28:11;4.80;;;3.07;;
479;SDS011;226;48.606;9.096;2024-01-30T13:30:40;3.27;;;2.87;;
479;SDS011;226;48.606;9.096;2024-01-30T13:33:08;4.57;;;2.80;;
479;SDS011;226;48.606;9.096;2024-01-30T13:35:36;3.33;;;2.97;;
479;SDS011;226;48.606;9.096;2024-01-30T13:38:04;5.10;;;3.53;;
479;SDS011;226;48.606;9.096;2024-01-30T13:40:32;3.13;;;2.73;;
479;SDS011;226;48.606;9.096;2024-01-30T13:43:00;2.97;;;2.53;;
479;SDS011;226;48.606;9.096;2024-01-30T13:45:35;3.03;;;2.73;;
479;SDS011;226;48.606;9.096;2024-01-30T13:48:03;4.20;;;3.00;;
479;SDS011;226;48.606;9.096;2024-01-30T13:50:32;6.27;;;2.47;;
479;SDS011;226;48.606;9.096;2024-01-30T13:53:01;7.23;;;3.07;;
479;SDS011;226;48.606;9.096;2024-01-30T13:55:30;3.63;;;2.73;;
479;SDS011;226;48.606;9.096;2024-01-30T13:57:58;5.87;;;3.03;;
479;SDS011;226;48.606;9.096;2024-01-30T14:00:28;5.13;;;2.73;;
479;SDS011;226;48.606;9.096;2024-01-30T14:02:57;5.30;;;3.93;;
479;SDS011;226;48.606;9.096;2024-01-30T14:05:25;8.17;;;4.40;;
479;SDS011;226;48.606;9.096;2024-01-30T14:07:55;4.47;;;3.00;;
479;SDS011;226;48.606;9.096;2024-01-30T14:10:24;7.93;;;3.33;;
479;SDS011;226;48.606;9.096;2024-01-30T14:12:53;3.27;;;3.00;;
479;SDS011;226;48.606;9.096;2024-01-30T14:15:22;9.10;;;3.53;;
479;SDS011;226;48.606;9.096;2024-01-30T14:17:56;8.37;;;3.47;;
479;SDS011;226;48.606;9.096;2024-01-30T14:20:25;8.33;;;3.70;;
479;SDS011;226;48.606;9.096;2024-01-30T14:22:54;5.10;;;3.33;;
479;SDS011;226;48.606;9.096;2024-01-30T14:25:23;3.97;;;3.60;;
479;SDS011;226;48.606;9.096;2024-01-30T14:27:51;10.30;;;4.63;;
479;SDS011;226;48.606;9.096;2024-01-30T14:30:20;2.93;;;2.70;;
479;SDS011;226;48.606;9.096;2024-01-30T14:32:48;9.90;;;5.00;;
479;SDS011;226;48.606;9.096;2024-01-30T14:35:19;5.70;;;3.80;;
479;SDS011;226;48.606;9.096;2024-01-30T14:37:48;5.37;;;3.13;;
479;SDS011;226;48.606;9.096;2024-01-30T14:40:17;4.80;;;3.80;;
479;SDS011;226;48.606;9.096;2024-01-30T14:42:46;4.20;;;3.10;;
479;SDS011;226;48.606;9.096;2024-01-30T14:45:14;5.37;;;4.07;;
479;SDS011;226;48.606;9.096;2024-01-30T14:47:43;4.50;;;3.63;;
479;SDS011;226;48.606;9.096;2024-01-30T14:50:12;3.27;;;3.07;;
479;SDS011;226;48.606;9.096;2024-01-30T14:52:44;10.43;;;4.07;;
479;SDS011;226;48.606;9.096;2024-01-30T14:55:12;7.83;;;3.30;;
479;SDS011;226;48.606;9.096;2024-01-30T14:57:41;5.50;;;3.13;;
479;SDS011;226;48.606;9.096;2024-01-30T15:00:12;11.93;;;4.70;;
479;SDS011;226;48.606;9.096;2024-01-30T15:02:42;8.00;;;4.30;;
479;SDS011;226;48.606;9.096;2024-01-30T15:05:11;3.90;;;3.50;;
479;SDS011;226;48.606;9.096;2024-01-30T15:07:39;4.23;;;3.53;;
479;SDS011;226;48.606;9.096;2024-01-30T15:10:09;7.43;;;4.33;;
479;SDS011;226;48.606;9.096;2024-01-30T15:12:38;7.77;;;4.03;;
479;SDS011;226;48.606;9.096;2024-01-30T15:15:07;8.83;;;4.17;;
479;SDS011;226;48.606;9.096;2024-01-30T15:17:37;5.37;;;3.73;;
479;SDS011;226;48.606;9.096;2024-01-30T15:20:06;5.80;;;3.43;;
479;SDS011;226;48.606;9.096;2024-01-30T15:22:35;6.77;;;3.40;;
479;SDS011;226;48.606;9.096;2024-01-30T15:25:04;5.63;;;3.50;;
479;SDS011;226;48.606;9.096;2024-01-30T15:27:34;13.43;;;4.30;;
479;SDS011;226;48.606;9.096;2024-01-30T15:30:03;5.17;;;3.97;;
479;SDS011;226;48.606;9.096;2024-01-30T15:32:31;5.50;;;4.20;;
479;SDS011;226;48.606;9.096;2024-01-30T15:35:00;15.43;;;7.50;;
479;SDS011;226;48.606;9.096;2024-01-30T15:37:31;11.20;;;5.17;;
479;SDS011;226;48.606;9.096;2024-01-30T15:40:00;13.30;;;5.93;;
479;SDS011;226;48.606;9.096;2024-01-30T15:42:29;9.57;;;4.77;;
479;SDS011;226;48.606;9.096;2024-01-30T15:44:59;22.30;;;6.03;;
479;SDS011;226;48.606;9.096;2024-01-30T15:47:27;18.90;;;6.47;;